Time;durP1;ratioP1;P1;durP2;ratioP2;P2;SDS_P1;SDS_P2;PMS_P1;PMS_P2;Temp;Humidity;BMP_temperature;BMP_pressure;BME280_temperature;BME280_humidity;BME280_pressure;Samples;Min_cycle;Max_cycle;Signal;HPM_P1;HPM_P2
2020/12/08 00:02:16;;;;;;;151.30;67.00;;;3.40;99.90;;;;;;4994887;28;20026;-76
2020/12/08 00:04:42;;;;;;;168.57;70.70;;;3.40;99.90;;;;;;4994655;28;20108;-76
2020/12/08 00:07:09;;;;;;;163.90;67.18;;;3.50;99.90;;;;;;5014433;28;20026;-75
2020/12/08 00:09:34;;;;;;;170.13;66.30;;;3.60;99.90;;;;;;5013231;28;20035;-75
2020/12/08 00:12:00;;;;;;;147.43;64.18;;;3.60;99.90;;;;;;4995475;28;20045;-75
2020/12/08 00:14:25;;;;;;;172.48;69.53;;;3.60;99.90;;;;;;4994586;28;20392;-75
2020/12/08 00:16:51;;;;;;;171.02;67.53;;;3.70;99.90;;;;;;5009566;28;20022;-76
2020/12/08 00:19:16;;;;;;;157.50;65.97;;;3.70;99.90;;;;;;5014134;28;20087;-76
2020/12/08 00:21:43;;;;;;;149.80;64.50;;;3.80;99.90;;;;;;5014155;28;20032;-75
2020/12/08 00:24:08;;;;;;;156.38;66.53;;;3.80;99.90;;;;;;5014050;28;20409;-75
2020/12/08 00:26:36;;;;;;;156.82;64.53;;;3.80;99.90;;;;;;4995787;28;20064;-75
2020/12/08 00:29:01;;;;;;;150.50;64.90;;;3.80;99.90;;;;;;4994525;28;20062;-76
2020/12/08 00:31:28;;;;;;;149.85;62.65;;;3.80;99.90;;;;;;4994353;28;20077;-76
2020/12/08 00:33:54;;;;;;;154.25;67.85;;;3.80;99.90;;;;;;4994232;28;20038;-76
2020/12/08 00:36:20;;;;;;;155.77;68.53;;;3.90;99.90;;;;;;5007482;28;20057;-75
2020/12/08 00:38:47;;;;;;;169.63;71.55;;;3.90;99.90;;;;;;5013807;28;20026;-75
2020/12/08 00:41:16;;;;;;;182.50;73.13;;;3.90;99.90;;;;;;5013567;28;20087;-75
2020/12/08 00:43:41;;;;;;;168.40;69.07;;;3.80;99.90;;;;;;5013662;28;20037;-76
2020/12/08 00:46:10;;;;;;;167.48;69.47;;;3.80;99.90;;;;;;5004502;28;20036;-76
2020/12/08 00:48:36;;;;;;;160.93;68.22;;;3.80;99.90;;;;;;4994022;28;20026;-75
2020/12/08 00:51:02;;;;;;;168.43;70.32;;;3.90;99.90;;;;;;4993964;28;20073;-75
2020/12/08 00:53:27;;;;;;;157.77;68.63;;;3.90;99.90;;;;;;4994041;28;20034;-75
2020/12/08 00:55:53;;;;;;;164.02;70.25;;;3.90;99.90;;;;;;5006129;28;20034;-76
2020/12/08 00:58:18;;;;;;;159.43;66.35;;;3.90;99.90;;;;;;5013424;28;20057;-76
2020/12/08 01:00:44;;;;;;;154.07;68.15;;;4.00;99.90;;;;;;5013395;28;20486;-75
2020/12/08 01:03:09;;;;;;;146.43;63.83;;;4.00;99.90;;;;;;5013401;28;20033;-75
2020/12/08 01:05:35;;;;;;;153.43;68.13;;;3.90;99.90;;;;;;5012852;28;20034;-75
2020/12/08 01:08:00;;;;;;;160.02;66.00;;;4.00;99.90;;;;;;5013381;28;20022;-76
2020/12/08 01:10:25;;;;;;;138.35;62.25;;;4.00;99.90;;;;;;5013124;28;20029;-75
2020/12/08 01:12:51;;;;;;;159.68;68.50;;;4.00;99.90;;;;;;5013179;28;20510;-75
2020/12/08 01:15:16;;;;;;;154.32;68.05;;;4.00;99.90;;;;;;5011310;28;20030;-75
2020/12/08 01:17:42;;;;;;;149.80;69.38;;;4.00;99.90;;;;;;5013158;28;20022;-76
2020/12/08 01:20:07;;;;;;;148.48;66.47;;;4.00;99.90;;;;;;4995783;28;20049;-75
2020/12/08 01:22:33;;;;;;;159.00;69.72;;;4.00;99.90;;;;;;4993397;28;20073;-75
2020/12/08 01:24:58;;;;;;;157.73;68.40;;;4.00;99.90;;;;;;4998090;28;20375;-75
2020/12/08 01:27:24;;;;;;;138.50;64.85;;;4.00;99.90;;;;;;5012999;28;20025;-75
2020/12/08 01:29:49;;;;;;;155.55;67.38;;;4.00;99.90;;;;;;5012935;28;20061;-75
2020/12/08 01:32:14;;;;;;;152.30;67.50;;;4.00;99.90;;;;;;5012672;28;20053;-75
2020/12/08 01:34:40;;;;;;;156.38;67.35;;;4.00;99.90;;;;;;5012370;28;20034;-75
2020/12/08 01:37:06;;;;;;;160.73;69.57;;;4.00;99.90;;;;;;4993272;28;20058;-75
2020/12/08 01:39:31;;;;;;;154.05;69.43;;;4.00;99.90;;;;;;4993065;28;20066;-75
2020/12/08 01:41:58;;;;;;;172.60;71.70;;;4.00;99.90;;;;;;4993090;28;20026;-75
2020/12/08 01:44:23;;;;;;;171.38;72.20;;;4.00;99.90;;;;;;4992901;28;20483;-76
2020/12/08 01:46:49;;;;;;;155.32;71.68;;;4.00;99.90;;;;;;5006034;28;20037;-75
2020/12/08 01:49:16;;;;;;;159.23;69.38;;;4.00;99.90;;;;;;5012683;28;20026;-76
2020/12/08 01:51:42;;;;;;;158.30;66.53;;;4.00;99.90;;;;;;5012470;28;20092;-75
2020/12/08 01:54:08;;;;;;;160.73;67.25;;;4.00;99.90;;;;;;5011162;28;20030;-75
2020/12/08 01:56:33;;;;;;;175.45;72.05;;;4.00;99.90;;;;;;4994329;28;20026;-75
2020/12/08 01:58:59;;;;;;;169.48;73.82;;;4.00;99.90;;;;;;4992728;28;20036;-76
2020/12/08 02:01:25;;;;;;;164.50;69.47;;;4.00;99.90;;;;;;4992587;28;20042;-75
2020/12/08 02:03:50;;;;;;;149.32;66.88;;;4.00;99.90;;;;;;4992592;28;20102;-75
2020/12/08 02:06:16;;;;;;;163.05;70.40;;;4.00;99.90;;;;;;5005249;28;20061;-75
2020/12/08 02:08:41;;;;;;;145.98;63.92;;;4.00;99.90;;;;;;5012287;28;20045;-75
2020/12/08 02:11:07;;;;;;;159.30;69.60;;;4.00;99.90;;;;;;4997717;28;20035;-75
2020/12/08 02:13:33;;;;;;;150.90;67.28;;;4.00;99.90;;;;;;4992595;28;20042;-76
2020/12/08 02:16:00;;;;;;;146.60;65.35;;;4.00;99.90;;;;;;4999953;28;20073;-76
2020/12/08 02:18:25;;;;;;;139.60;63.05;;;4.00;99.90;;;;;;5012174;28;20113;-76
2020/12/08 02:21:01;;;;;;;148.50;66.03;;;4.00;99.90;;;;;;5012177;28;20045;-76
2020/12/08 02:23:26;;;;;;;144.05;62.65;;;4.10;99.90;;;;;;5012229;28;20116;-75
2020/12/08 02:25:56;;;;;;;131.07;59.97;;;4.10;99.90;;;;;;4999486;28;20062;-76
2020/12/08 02:28:22;;;;;;;127.82;59.38;;;4.10;99.90;;;;;;4992395;28;20221;-76
2020/12/08 02:30:47;;;;;;;131.40;59.20;;;4.10;99.90;;;;;;4992427;28;20030;-76
2020/12/08 02:33:13;;;;;;;129.70;59.08;;;4.20;99.90;;;;;;4991985;28;20065;-76
2020/12/08 02:35:39;;;;;;;119.72;58.85;;;4.20;99.90;;;;;;4999731;28;20085;-76
2020/12/08 02:38:04;;;;;;;119.68;55.58;;;4.10;99.90;;;;;;5011634;28;20112;-76
2020/12/08 02:40:30;;;;;;;113.60;56.33;;;4.10;99.90;;;;;;5010340;28;20048;-76
2020/12/08 02:42:55;;;;;;;130.23;60.50;;;4.10;99.90;;;;;;5011713;28;20037;-76
2020/12/08 02:45:21;;;;;;;126.32;60.53;;;4.10;99.90;;;;;;5008936;28;20029;-76
2020/12/08 02:47:46;;;;;;;125.95;60.15;;;4.10;99.90;;;;;;4992311;28;20634;-76
2020/12/08 02:50:12;;;;;;;134.02;61.47;;;4.10;99.90;;;;;;4992267;28;20034;-76
2020/12/08 02:52:37;;;;;;;118.50;56.83;;;4.10;99.90;;;;;;4992194;28;20030;-76
2020/12/08 02:55:03;;;;;;;130.93;58.03;;;4.10;99.90;;;;;;4997376;28;20394;-76
2020/12/08 02:57:29;;;;;;;129.32;60.00;;;4.10;99.90;;;;;;5011761;28;20113;-76
2020/12/08 02:59:54;;;;;;;124.13;58.00;;;4.10;99.90;;;;;;5011760;28;20076;-76
2020/12/08 03:02:20;;;;;;;124.78;58.95;;;4.10;99.90;;;;;;5011626;28;20085;-75
2020/12/08 03:04:45;;;;;;;108.85;53.00;;;4.10;99.90;;;;;;5010921;28;20101;-76
2020/12/08 03:07:11;;;;;;;135.07;62.72;;;4.10;99.90;;;;;;4992168;28;20031;-75
2020/12/08 03:09:36;;;;;;;122.97;60.17;;;4.10;99.90;;;;;;4992140;28;20034;-76
2020/12/08 03:12:06;;;;;;;129.52;61.15;;;4.10;99.90;;;;;;4991949;28;20034;-76
2020/12/08 03:14:32;;;;;;;125.60;57.80;;;4.10;99.90;;;;;;4992126;28;20046;-76
2020/12/08 03:16:57;;;;;;;114.47;55.05;;;4.10;99.90;;;;;;5007312;28;20046;-76
2020/12/08 03:19:23;;;;;;;122.60;60.17;;;4.10;99.90;;;;;;5011532;28;20038;-76
2020/12/08 03:21:48;;;;;;;121.07;58.65;;;4.10;99.90;;;;;;5011543;28;20368;-76
2020/12/08 03:24:14;;;;;;;132.43;59.97;;;4.10;99.90;;;;;;5011469;28;20026;-76
2020/12/08 03:26:39;;;;;;;121.05;60.05;;;4.10;99.90;;;;;;4992762;28;20636;-76
2020/12/08 03:29:05;;;;;;;116.90;55.75;;;4.10;99.90;;;;;;4991897;28;20085;-76
2020/12/08 03:31:30;;;;;;;117.00;57.83;;;4.10;99.90;;;;;;4991816;28;20038;-76
2020/12/08 03:33:55;;;;;;;110.95;57.67;;;4.10;99.90;;;;;;4991728;28;20491;-76
2020/12/08 03:36:21;;;;;;;119.57;58.22;;;4.10;99.90;;;;;;5004904;28;20030;-76
2020/12/08 03:38:47;;;;;;;106.35;55.33;;;4.10;99.90;;;;;;5011396;28;20033;-76
2020/12/08 03:41:21;;;;;;;114.97;57.60;;;4.10;99.90;;;;;;5010885;28;20045;-76
2020/12/08 03:43:50;;;;;;;117.63;57.72;;;4.10;99.90;;;;;;5011489;28;20022;-76
2020/12/08 03:46:24;;;;;;;123.70;60.08;;;4.10;99.90;;;;;;5004689;28;20038;-76
2020/12/08 03:48:50;;;;;;;104.93;53.47;;;4.10;99.90;;;;;;4995135;28;20022;-76
2020/12/08 03:51:17;;;;;;;101.13;53.80;;;4.10;99.90;;;;;;4995067;28;20031;-76
2020/12/08 03:53:43;;;;;;;104.32;54.38;;;4.10;99.90;;;;;;4994914;28;20562;-76
2020/12/08 03:56:14;;;;;;;102.22;53.47;;;4.10;99.90;;;;;;5009278;28;20040;-76
2020/12/08 03:58:39;;;;;;;100.00;51.85;;;4.10;99.90;;;;;;5013972;28;20022;-76
2020/12/08 04:01:06;;;;;;;100.95;52.47;;;4.10;99.90;;;;;;5013682;28;20033;-76
2020/12/08 04:03:31;;;;;;;98.30;50.75;;;4.10;99.90;;;;;;5014461;28;20026;-76
2020/12/08 04:06:04;;;;;;;93.00;50.92;;;4.10;99.90;;;;;;5004042;28;20034;-77
2020/12/08 04:08:29;;;;;;;93.85;49.92;;;4.10;99.90;;;;;;4994876;28;20037;-76
2020/12/08 04:10:55;;;;;;;103.55;51.00;;;4.10;99.90;;;;;;5006780;28;20034;-76
2020/12/08 04:13:21;;;;;;;89.03;48.30;;;4.10;99.90;;;;;;5014358;28;20065;-76
2020/12/08 04:15:47;;;;;;;85.32;46.95;;;4.00;99.90;;;;;;5013793;28;20049;-76
2020/12/08 04:18:13;;;;;;;94.88;51.22;;;4.00;99.90;;;;;;5014256;28;20044;-76
2020/12/08 04:20:43;;;;;;;94.53;49.10;;;4.10;99.90;;;;;;5014743;28;20109;-76
2020/12/08 04:23:11;;;;;;;85.70;44.25;;;4.10;99.90;;;;;;5014261;28;20060;-76
2020/12/08 04:25:37;;;;;;;86.95;45.65;;;4.10;99.90;;;;;;5003768;28;20037;-76
2020/12/08 04:28:04;;;;;;;83.63;44.70;;;4.10;99.90;;;;;;4994557;28;20027;-75
2020/12/08 04:30:30;;;;;;;85.22;45.80;;;4.10;99.90;;;;;;4994653;28;20026;-76
2020/12/08 04:32:55;;;;;;;85.72;45.15;;;4.00;99.90;;;;;;4994306;28;20088;-76
2020/12/08 04:35:21;;;;;;;92.70;48.35;;;4.10;99.90;;;;;;4999000;28;20030;-75
2020/12/08 04:37:46;;;;;;;86.85;46.50;;;4.20;99.90;;;;;;5013862;28;20034;-75
2020/12/08 04:40:12;;;;;;;81.60;46.17;;;4.10;99.90;;;;;;5013219;28;20025;-76
2020/12/08 04:42:46;;;;;;;77.93;43.97;;;4.00;99.90;;;;;;5013842;28;20025;-76
2020/12/08 04:45:13;;;;;;;86.13;44.67;;;4.10;99.90;;;;;;5012359;28;20437;-76
2020/12/08 04:47:42;;;;;;;83.78;46.05;;;4.10;99.90;;;;;;4994179;28;20031;-76
2020/12/08 04:50:08;;;;;;;75.03;42.92;;;4.10;99.90;;;;;;4993988;28;20038;-75
2020/12/08 04:52:34;;;;;;;74.68;43.75;;;4.10;99.90;;;;;;4994101;28;20027;-75
2020/12/08 04:55:01;;;;;;;83.75;45.35;;;4.10;99.90;;;;;;4998024;28;20030;-75
2020/12/08 04:57:26;;;;;;;98.97;46.03;;;4.10;99.90;;;;;;5013632;28;20099;-76
2020/12/08 05:00:12;;;;;;;74.10;43.92;;;4.10;99.90;;;;;;5013444;28;20042;-76
2020/12/08 05:02:47;;;;;;;87.55;46.45;;;4.10;99.90;;;;;;5013370;28;20690;-75
2020/12/08 05:05:13;;;;;;;79.28;43.67;;;4.10;99.90;;;;;;5009952;28;20026;-75
2020/12/08 05:07:39;;;;;;;80.93;43.80;;;4.10;99.90;;;;;;4993769;28;20026;-76
2020/12/08 05:10:04;;;;;;;72.22;41.78;;;4.10;99.90;;;;;;4999024;28;20032;-75
2020/12/08 05:12:30;;;;;;;73.10;42.50;;;4.10;99.90;;;;;;5007856;28;20522;-75
2020/12/08 05:14:55;;;;;;;79.55;44.17;;;4.10;99.90;;;;;;4993377;28;20113;-76
2020/12/08 05:17:25;;;;;;;79.90;43.10;;;4.10;99.90;;;;;;4993608;28;20028;-75
2020/12/08 05:20:08;;;;;;;87.55;45.60;;;4.10;99.90;;;;;;4993507;28;20026;-75
2020/12/08 05:22:35;;;;;;;74.60;40.85;;;4.10;99.90;;;;;;4996099;28;20050;-75
2020/12/08 05:25:15;;;;;;;76.25;42.15;;;4.10;99.90;;;;;;5012605;28;20026;-75
2020/12/08 05:27:44;;;;;;;69.60;41.25;;;4.10;99.90;;;;;;5012946;28;20025;-76
2020/12/08 05:30:11;;;;;;;70.05;41.47;;;4.10;99.90;;;;;;5013018;28;20022;-76
2020/12/08 05:32:41;;;;;;;71.90;40.33;;;4.10;99.90;;;;;;5011886;28;20045;-76
2020/12/08 05:35:12;;;;;;;73.00;41.42;;;4.10;99.90;;;;;;4993113;28;20109;-75
2020/12/08 05:37:40;;;;;;;78.38;43.55;;;4.10;99.90;;;;;;4993308;28;20491;-76
2020/12/08 05:40:14;;;;;;;70.90;41.53;;;4.00;99.90;;;;;;4998097;28;20560;-76
2020/12/08 05:42:40;;;;;;;;;;;4.10;99.90;;;;;;5013303;28;20109;-75
2020/12/08 05:45:08;;;;;;;73.22;41.08;;;4.10;99.90;;;;;;5012525;28;19910;-75
2020/12/08 05:47:41;;;;;;;77.30;41.58;;;4.10;99.90;;;;;;5012679;28;20025;-76
2020/12/08 05:50:07;;;;;;;76.60;43.30;;;4.10;99.90;;;;;;5009414;28;20486;-76
2020/12/08 05:52:34;;;;;;;70.50;38.53;;;4.10;99.90;;;;;;4992847;28;20040;-76
2020/12/08 05:55:17;;;;;;;71.82;41.00;;;4.10;99.90;;;;;;4992813;28;20026;-75
2020/12/08 05:57:44;;;;;;;68.43;40.80;;;4.10;99.90;;;;;;4992989;28;20109;-76
2020/12/08 06:00:23;;;;;;;71.05;38.28;;;4.10;99.90;;;;;;4993020;28;20058;-75
2020/12/08 06:02:49;;;;;;;76.00;40.67;;;4.10;99.90;;;;;;5012320;28;20435;-76
2020/12/08 06:05:31;;;;;;;66.45;39.30;;;4.10;99.90;;;;;;5012236;28;20060;-76
2020/12/08 06:07:58;;;;;;;70.75;39.42;;;4.10;99.90;;;;;;5011656;28;20022;-75
2020/12/08 06:10:24;;;;;;;59.67;38.08;;;4.10;99.90;;;;;;5010769;28;20389;-75
2020/12/08 06:12:58;;;;;;;61.03;37.10;;;4.10;99.90;;;;;;5011952;28;20038;-75
2020/12/08 06:15:27;;;;;;;67.35;39.05;;;4.10;99.90;;;;;;5012011;28;20045;-76
2020/12/08 06:17:53;;;;;;;58.85;34.85;;;4.10;99.90;;;;;;5012479;28;20056;-76
2020/12/08 06:20:19;;;;;;;67.70;38.25;;;4.10;99.90;;;;;;5007478;28;20466;-76
2020/12/08 06:22:55;;;;;;;67.65;38.78;;;4.00;99.90;;;;;;4992525;28;20042;-76
2020/12/08 06:25:21;;;;;;;61.33;35.78;;;4.10;99.90;;;;;;4992285;28;20588;-76
2020/12/08 06:27:46;;;;;;;57.45;35.58;;;4.10;99.90;;;;;;4992508;28;20117;-76
2020/12/08 06:30:12;;;;;;;63.03;35.17;;;4.10;99.90;;;;;;4993166;28;20102;-76
2020/12/08 06:32:41;;;;;;;66.70;35.72;;;4.10;99.90;;;;;;5011980;28;20414;-75
2020/12/08 06:35:12;;;;;;;57.67;32.70;;;4.10;99.90;;;;;;5011957;28;20139;-76
2020/12/08 06:38:07;;;;;;;61.78;35.55;;;4.00;99.90;;;;;;5012070;28;20029;-76
2020/12/08 06:40:32;;;;;;;60.30;34.10;;;4.00;99.90;;;;;;5006602;28;20076;-75
2020/12/08 06:42:58;;;;;;;53.95;34.22;;;4.00;99.90;;;;;;4992298;28;20491;-76
2020/12/08 06:45:24;;;;;;;54.90;34.80;;;4.00;99.90;;;;;;4992026;28;20026;-76
2020/12/08 06:47:51;;;;;;;52.78;31.60;;;4.00;99.90;;;;;;4992310;28;20030;-76
2020/12/08 06:50:47;;;;;;;57.60;34.13;;;4.00;99.90;;;;;;4996137;28;20062;-76
2020/12/08 06:53:13;;;;;;;54.50;33.88;;;4.00;99.90;;;;;;5015483;28;20513;-76
2020/12/08 06:55:45;;;;;;;66.13;37.10;;;4.00;99.90;;;;;;5011398;28;20057;-76
2020/12/08 06:58:10;;;;;;;65.63;35.63;;;3.90;99.90;;;;;;5011963;28;20042;-76
2020/12/08 07:00:36;;;;;;;53.00;32.85;;;4.00;99.90;;;;;;5007428;28;20498;-76
2020/12/08 07:03:02;;;;;;;49.70;32.03;;;4.00;99.90;;;;;;4992147;28;20026;-76
2020/12/08 07:05:30;;;;;;;52.22;32.00;;;4.00;99.90;;;;;;4991936;28;20033;-76
2020/12/08 07:08:03;;;;;;;52.65;32.40;;;4.00;99.90;;;;;;4992223;28;20046;-76
2020/12/08 07:10:29;;;;;;;62.55;34.95;;;4.00;99.90;;;;;;5000475;28;20038;-76
2020/12/08 07:12:55;;;;;;;60.13;37.22;;;4.00;99.90;;;;;;5011659;28;20117;-76
2020/12/08 07:15:25;;;;;;;57.15;33.25;;;4.00;99.90;;;;;;5011925;28;20026;-75
2020/12/08 07:17:58;;;;;;;65.40;36.58;;;4.00;99.90;;;;;;5011682;28;20029;-76
2020/12/08 07:20:25;;;;;;;60.50;35.40;;;4.00;99.90;;;;;;5009992;28;20022;-76
2020/12/08 07:22:51;;;;;;;58.92;36.67;;;4.00;99.90;;;;;;4995828;28;20030;-76
2020/12/08 07:25:17;;;;;;;58.38;33.28;;;4.00;99.90;;;;;;5014848;28;20537;-75
2020/12/08 07:27:51;;;;;;;65.07;35.85;;;4.10;99.90;;;;;;5015157;28;20068;-75
2020/12/08 07:30:19;;;;;;;62.03;35.85;;;4.00;99.90;;;;;;5015159;28;20025;-76
2020/12/08 07:32:44;;;;;;;54.83;34.47;;;4.00;99.90;;;;;;5014997;28;20038;-76
2020/12/08 07:35:30;;;;;;;51.85;31.08;;;4.00;99.90;;;;;;5014572;28;20091;-76
2020/12/08 07:37:57;;;;;;;53.75;32.08;;;4.10;99.90;;;;;;5015099;28;20022;-76
2020/12/08 07:40:31;;;;;;;49.42;31.88;;;4.00;99.90;;;;;;5013239;28;20037;-76
2020/12/08 07:42:56;;;;;;;53.33;33.20;;;4.20;99.90;;;;;;5014909;28;20096;-76
2020/12/08 07:45:22;;;;;;;44.22;28.58;;;4.10;99.90;;;;;;5014819;28;20108;-76
2020/12/08 07:47:55;;;;;;;47.72;30.73;;;4.10;99.90;;;;;;5014950;28;20029;-76
2020/12/08 07:50:23;;;;;;;50.30;30.13;;;4.10;99.90;;;;;;5012224;28;20038;-75
2020/12/08 07:53:06;;;;;;;52.40;30.00;;;4.10;99.90;;;;;;4995164;28;20034;-75
2020/12/08 07:55:40;;;;;;;47.20;29.45;;;4.10;99.90;;;;;;4994942;28;20026;-76
2020/12/08 07:58:06;;;;;;;52.63;31.20;;;4.10;99.90;;;;;;4995341;28;20045;-76
2020/12/08 08:00:31;;;;;;;52.45;32.65;;;4.10;99.90;;;;;;4994417;28;20031;-75
2020/12/08 08:02:57;;;;;;;53.53;32.63;;;4.10;99.90;;;;;;5013984;28;20029;-76
2020/12/08 08:05:22;;;;;;;54.28;33.45;;;4.10;99.90;;;;;;5014404;28;20072;-75
2020/12/08 08:07:48;;;;;;;52.05;32.55;;;4.10;99.90;;;;;;5014456;28;20478;-76
2020/12/08 08:10:14;;;;;;;52.92;32.10;;;4.10;99.90;;;;;;5013659;28;20117;-76
2020/12/08 08:12:39;;;;;;;51.88;30.92;;;4.10;99.90;;;;;;5014244;28;20609;-76
2020/12/08 08:15:06;;;;;;;47.67;30.67;;;4.10;99.90;;;;;;5014057;28;20026;-76
2020/12/08 08:17:31;;;;;;;48.28;30.30;;;4.20;99.90;;;;;;5014245;28;20054;-76
2020/12/08 08:19:57;;;;;;;48.45;30.33;;;4.10;99.90;;;;;;5012570;28;20069;-76
2020/12/08 08:22:23;;;;;;;54.50;30.13;;;4.20;99.90;;;;;;4994389;28;20030;-77
2020/12/08 08:24:49;;;;;;;47.33;28.38;;;4.10;99.90;;;;;;4994219;28;20376;-76
2020/12/08 08:27:14;;;;;;;48.47;29.90;;;4.20;99.90;;;;;;4994437;28;20512;-76
2020/12/08 08:29:40;;;;;;;44.70;28.38;;;4.20;99.90;;;;;;4993945;28;20092;-76
2020/12/08 08:32:05;;;;;;;49.42;28.88;;;4.20;99.90;;;;;;5009619;28;20057;-76
2020/12/08 08:34:31;;;;;;;43.95;28.17;;;4.20;99.90;;;;;;5013738;28;20080;-76
2020/12/08 08:36:57;;;;;;;40.92;27.67;;;4.20;99.90;;;;;;5013741;28;20049;-76
2020/12/08 08:39:23;;;;;;;46.22;28.50;;;4.20;99.90;;;;;;5013796;28;20080;-76
2020/12/08 08:41:52;;;;;;;43.22;28.80;;;4.20;99.90;;;;;;4994410;28;20031;-76
2020/12/08 08:44:18;;;;;;;43.35;28.40;;;4.20;99.90;;;;;;4994031;28;20022;-76
2020/12/08 08:46:44;;;;;;;38.20;26.27;;;4.30;99.90;;;;;;4994300;28;20554;-76
2020/12/08 08:49:16;;;;;;;40.42;28.30;;;4.30;99.90;;;;;;4994013;28;20065;-75
2020/12/08 08:51:46;;;;;;;40.45;26.02;;;4.40;99.90;;;;;;5008977;28;20548;-75
2020/12/08 08:54:13;;;;;;;42.53;27.95;;;4.40;99.90;;;;;;5013534;28;20034;-76
2020/12/08 08:56:39;;;;;;;43.33;27.85;;;4.40;99.90;;;;;;5013143;28;20030;-76
2020/12/08 08:59:05;;;;;;;35.90;24.98;;;4.40;99.90;;;;;;5013537;28;20029;-75
2020/12/08 09:01:32;;;;;;;38.10;26.55;;;4.50;99.90;;;;;;5027124;28;20030;-76
2020/12/08 09:03:58;;;;;;;43.85;26.88;;;4.50;99.90;;;;;;5013494;28;20080;-76
2020/12/08 09:06:23;;;;;;;35.90;25.63;;;4.50;99.90;;;;;;5005472;28;20766;-75
2020/12/08 09:08:49;;;;;;;40.30;26.98;;;4.60;99.90;;;;;;4994351;28;20027;-76
2020/12/08 09:11:15;;;;;;;39.00;26.73;;;4.60;99.90;;;;;;4997410;28;20112;-76
2020/12/08 09:13:40;;;;;;;39.63;27.17;;;4.60;99.90;;;;;;4993466;28;20026;-76
2020/12/08 09:16:06;;;;;;;42.72;26.77;;;4.60;99.90;;;;;;4993609;28;20050;-76
2020/12/08 09:18:32;;;;;;;40.00;26.23;;;4.60;99.90;;;;;;4996167;28;20089;-76
2020/12/08 09:20:57;;;;;;;34.53;24.60;;;4.60;99.90;;;;;;5005223;28;20106;-77
2020/12/08 09:23:23;;;;;;;36.72;24.33;;;4.60;99.90;;;;;;4993479;28;20076;-76
2020/12/08 09:25:51;;;;;;;36.70;24.95;;;4.70;99.90;;;;;;5007130;28;20145;-77
2020/12/08 09:28:17;;;;;;;35.65;25.20;;;4.60;99.90;;;;;;5012974;28;20080;-76
2020/12/08 09:30:43;;;;;;;37.17;25.73;;;4.60;99.90;;;;;;5012668;28;20486;-76
2020/12/08 09:33:08;;;;;;;36.92;25.30;;;4.70;99.90;;;;;;5012816;28;20021;-76
2020/12/08 09:35:34;;;;;;;35.30;24.50;;;4.70;99.90;;;;;;5008777;28;20042;-76
2020/12/08 09:37:59;;;;;;;40.50;26.23;;;4.80;99.90;;;;;;4993179;28;20073;-75
2020/12/08 09:40:25;;;;;;;33.42;23.80;;;4.70;99.90;;;;;;4992977;28;20031;-75
2020/12/08 09:42:51;;;;;;;34.25;24.10;;;4.80;99.90;;;;;;4998543;28;20025;-76
2020/12/08 09:45:16;;;;;;;34.95;24.63;;;4.80;99.90;;;;;;5013101;28;20034;-76
2020/12/08 09:47:42;;;;;;;34.67;23.85;;;4.80;99.90;;;;;;5011011;28;20026;-75
2020/12/08 09:50:09;;;;;;;36.78;23.23;;;4.80;99.90;;;;;;5029501;28;20025;-76
2020/12/08 09:52:36;;;;;;;34.58;24.15;;;4.90;99.90;;;;;;4992570;28;20045;-76
2020/12/08 09:55:02;;;;;;;32.40;22.13;;;4.90;99.90;;;;;;4992649;28;20108;-75
2020/12/08 09:57:28;;;;;;;32.30;24.52;;;4.80;99.90;;;;;;5004587;28;20030;-74
2020/12/08 09:59:53;;;;;;;31.20;22.45;;;4.90;99.90;;;;;;5012308;28;20030;-75
2020/12/08 10:02:20;;;;;;;34.00;23.98;;;4.90;99.90;;;;;;5029348;28;20033;-75
2020/12/08 10:04:46;;;;;;;34.63;23.38;;;4.90;99.90;;;;;;5031870;28;20032;-75
2020/12/08 10:07:17;;;;;;;35.92;23.63;;;5.00;99.90;;;;;;5029653;28;20412;-75
2020/12/08 10:09:43;;;;;;;29.98;21.20;;;5.00;99.90;;;;;;5032009;28;20032;-75
2020/12/08 10:12:09;;;;;;;34.13;22.80;;;5.00;99.90;;;;;;5031625;28;20097;-75
2020/12/08 10:14:35;;;;;;;30.02;21.58;;;5.10;99.90;;;;;;5031750;28;20021;-75
2020/12/08 10:17:01;;;;;;;27.92;21.05;;;5.10;99.90;;;;;;5018463;28;20079;-76
2020/12/08 10:19:27;;;;;;;31.30;22.20;;;5.10;99.90;;;;;;5010726;28;20057;-76
2020/12/08 10:21:56;;;;;;;33.22;23.33;;;5.10;99.90;;;;;;5011577;28;20068;-76
2020/12/08 10:24:23;;;;;;;31.95;23.70;;;5.10;99.90;;;;;;5012109;28;20050;-76
2020/12/08 10:26:48;;;;;;;33.10;21.73;;;5.10;99.90;;;;;;5004032;28;20534;-76
2020/12/08 10:29:14;;;;;;;34.38;23.25;;;5.10;99.90;;;;;;4992506;28;20109;-75
2020/12/08 10:31:40;;;;;;;31.83;22.35;;;5.20;99.90;;;;;;4991780;28;20577;-75
2020/12/08 10:34:05;;;;;;;34.03;23.27;;;5.20;99.90;;;;;;4992151;28;20033;-75
2020/12/08 10:36:31;;;;;;;34.85;24.23;;;5.30;99.90;;;;;;5003049;28;20029;-75
2020/12/08 10:38:57;;;;;;;32.85;22.88;;;5.30;99.90;;;;;;5015735;28;20075;-75
2020/12/08 10:41:29;;;;;;;30.35;22.42;;;5.40;99.90;;;;;;5011832;28;20057;-75
2020/12/08 10:43:54;;;;;;;33.58;23.35;;;5.50;99.90;;;;;;5011636;28;20101;-75
2020/12/08 10:46:20;;;;;;;33.70;23.63;;;5.60;99.90;;;;;;5011148;28;20461;-76
2020/12/08 10:48:45;;;;;;;33.45;23.67;;;5.70;99.90;;;;;;5011820;28;20029;-76
2020/12/08 10:51:11;;;;;;;35.60;24.45;;;5.80;99.90;;;;;;5011145;28;20148;-75
2020/12/08 10:53:36;;;;;;;35.70;25.52;;;5.90;99.90;;;;;;5012749;28;20030;-75
2020/12/08 10:56:02;;;;;;;31.88;23.45;;;5.90;99.90;;;;;;5015175;28;20026;-75
2020/12/08 10:58:28;;;;;;;33.25;22.67;;;6.00;99.90;;;;;;5015586;28;20445;-76
2020/12/08 11:00:54;;;;;;;33.47;24.15;;;6.10;99.90;;;;;;5015501;28;20022;-76
2020/12/08 11:03:19;;;;;;;28.67;21.38;;;6.20;99.90;;;;;;5015394;28;20030;-76
2020/12/08 11:05:45;;;;;;;34.47;24.38;;;6.20;99.90;;;;;;5010651;28;20019;-76
2020/12/08 11:08:11;;;;;;;33.58;22.77;;;6.20;99.90;;;;;;4995971;28;20050;-77
2020/12/08 11:10:37;;;;;;;30.90;22.70;;;6.30;99.90;;;;;;5004859;28;20026;-76
2020/12/08 11:13:03;;;;;;;35.13;23.30;;;6.30;99.90;;;;;;5015256;28;20092;-76
2020/12/08 11:15:29;;;;;;;32.08;23.17;;;6.30;99.90;;;;;;5015063;28;20038;-76
2020/12/08 11:17:54;;;;;;;28.73;22.95;;;6.40;99.90;;;;;;5014564;28;20769;-77
2020/12/08 11:20:20;;;;;;;32.13;23.35;;;6.40;99.90;;;;;;5013882;28;20474;-75
2020/12/08 11:22:46;;;;;;;33.05;23.23;;;6.40;99.90;;;;;;4995475;28;20033;-76
2020/12/08 11:25:11;;;;;;;31.27;23.02;;;6.50;99.90;;;;;;4995514;28;20105;-76
2020/12/08 11:27:37;;;;;;;30.30;23.17;;;6.50;99.90;;;;;;5002194;28;20076;-77
2020/12/08 11:30:04;;;;;;;36.53;23.63;;;6.60;99.90;;;;;;5008190;28;20034;-77
2020/12/08 11:32:30;;;;;;;29.55;21.52;;;6.70;99.90;;;;;;5011020;28;20026;-77
2020/12/08 11:34:55;;;;;;;35.40;22.35;;;6.80;99.90;;;;;;4995591;28;20037;-76
2020/12/08 11:37:21;;;;;;;31.80;22.85;;;6.90;99.90;;;;;;5005662;28;20045;-76
2020/12/08 11:39:47;;;;;;;31.80;22.25;;;6.90;99.90;;;;;;5034641;28;20022;-75
2020/12/08 11:42:14;;;;;;;32.05;23.05;;;6.90;99.90;;;;;;5025776;28;20160;-77
2020/12/08 11:44:43;;;;;;;28.90;19.90;;;6.70;99.90;;;;;;5014241;28;20021;-76
2020/12/08 11:47:09;;;;;;;31.85;22.38;;;6.60;99.90;;;;;;5014939;28;20022;-75
2020/12/08 11:49:36;;;;;;;29.15;22.17;;;6.50;99.90;;;;;;5014890;28;20033;-75
2020/12/08 11:52:03;;;;;;;28.80;20.83;;;6.40;99.90;;;;;;5013903;28;20040;-76
2020/12/08 11:54:29;;;;;;;29.70;22.23;;;6.30;99.90;;;;;;5029600;28;20021;-75
2020/12/08 11:56:55;;;;;;;29.75;21.42;;;6.10;99.90;;;;;;5014641;28;20500;-77
2020/12/08 11:59:20;;;;;;;29.88;22.15;;;6.10;99.90;;;;;;5014524;28;20152;-76
2020/12/08 12:01:46;;;;;;;31.80;22.33;;;6.00;99.90;;;;;;5004477;28;20061;-76
2020/12/08 12:04:11;;;;;;;30.27;21.52;;;6.00;99.90;;;;;;4994292;28;20058;-77
2020/12/08 12:06:37;;;;;;;30.55;21.83;;;5.90;99.90;;;;;;4993851;28;20029;-75
2020/12/08 12:09:04;;;;;;;34.85;21.52;;;5.90;99.90;;;;;;4994940;28;20042;-75
2020/12/08 12:11:29;;;;;;;27.73;20.13;;;6.00;99.90;;;;;;4999077;28;20087;-75
2020/12/08 12:13:55;;;;;;;27.23;20.55;;;6.00;99.90;;;;;;5012988;28;20026;-75
2020/12/08 12:16:20;;;;;;;30.73;22.10;;;6.00;99.90;;;;;;4994993;28;20038;-75
2020/12/08 12:18:46;;;;;;;30.90;22.80;;;6.10;99.90;;;;;;4994624;28;20045;-75
2020/12/08 12:21:14;;;;;;;28.85;19.98;;;6.20;99.90;;;;;;4994575;28;20102;-75
2020/12/08 12:23:40;;;;;;;30.45;22.23;;;6.10;99.90;;;;;;4994358;28;20018;-75
2020/12/08 12:26:05;;;;;;;31.38;22.02;;;6.20;99.90;;;;;;4994527;28;20019;-76
2020/12/08 12:28:31;;;;;;;29.63;21.40;;;6.30;99.90;;;;;;5010689;28;20062;-75
2020/12/08 12:30:56;;;;;;;29.98;21.98;;;6.40;99.90;;;;;;5013845;28;20482;-75
2020/12/08 12:33:22;;;;;;;29.35;20.50;;;6.40;99.90;;;;;;5013946;28;20021;-76